sensor_id;sensor_type;location;lat;lon;timestamp;P1;durP1;ratioP1;P2;durP2;ratioP2
26502;SDS011;14177;51.520;6.764;2022-10-23T00:01:37;9.20;;;5.10;;
26502;SDS011;14177;51.520;6.764;2022-10-23T00:04:11;9.15;;;5.63;;
26502;SDS011;14177;51.520;6.764;2022-10-23T00:06:42;11.00;;;5.40;;
26502;SDS011;14177;51.520;6.764;2022-10-23T00:09:11;10.88;;;5.20;;
26502;SDS011;14177;51.520;6.764;2022-10-23T00:11:43;11.63;;;5.32;;
26502;SDS011;14177;51.520;6.764;2022-10-23T00:14:13;8.27;;;5.07;;
26502;SDS011;14177;51.520;6.764;2022-10-23T00:16:42;10.38;;;4.55;;
26502;SDS011;14177;51.520;6.764;2022-10-23T00:19:10;10.52;;;4.88;;
26502;SDS011;14177;51.520;6.764;2022-10-23T00:21:37;13.32;;;5.55;;
26502;SDS011;14177;51.520;6.764;2022-10-23T00:24:05;9.70;;;5.28;;
26502;SDS011;14177;51.520;6.764;2022-10-23T00:26:34;11.88;;;5.13;;
26502;SDS011;14177;51.520;6.764;2022-10-23T00:29:03;7.80;;;4.82;;
26502;SDS011;14177;51.520;6.764;2022-10-23T00:31:30;7.85;;;5.28;;
26502;SDS011;14177;51.520;6.764;2022-10-23T00:33:58;11.43;;;5.45;;
26502;SDS011;14177;51.520;6.764;2022-10-23T00:36:25;9.25;;;5.32;;
26502;SDS011;14177;51.520;6.764;2022-10-23T00:38:53;7.97;;;4.60;;
26502;SDS011;14177;51.520;6.764;2022-10-23T00:41:22;11.88;;;4.90;;
26502;SDS011;14177;51.520;6.764;2022-10-23T00:44:04;8.45;;;4.40;;
26502;SDS011;14177;51.520;6.764;2022-10-23T00:46:36;11.10;;;4.90;;
26502;SDS011;14177;51.520;6.764;2022-10-23T00:49:05;8.00;;;4.25;;
26502;SDS011;14177;51.520;6.764;2022-10-23T00:51:41;6.25;;;3.80;;
26502;SDS011;14177;51.520;6.764;2022-10-23T00:54:20;7.38;;;4.20;;
26502;SDS011;14177;51.520;6.764;2022-10-23T00:56:56;9.80;;;3.97;;
26502;SDS011;14177;51.520;6.764;2022-10-23T00:59:27;8.57;;;3.85;;
26502;SDS011;14177;51.520;6.764;2022-10-23T01:01:55;9.50;;;3.72;;
26502;SDS011;14177;51.520;6.764;2022-10-23T01:04:24;6.10;;;3.88;;
26502;SDS011;14177;51.520;6.764;2022-10-23T01:07:14;9.35;;;3.75;;
26502;SDS011;14177;51.520;6.764;2022-10-23T01:09:54;9.73;;;3.88;;
26502;SDS011;14177;51.520;6.764;2022-10-23T01:12:50;7.50;;;3.88;;
26502;SDS011;14177;51.520;6.764;2022-10-23T01:21:16;14.20;;;4.57;;
26502;SDS011;14177;51.520;6.764;2022-10-23T01:24:02;5.70;;;3.22;;
26502;SDS011;14177;51.520;6.764;2022-10-23T01:27:10;6.00;;;2.78;;
26502;SDS011;14177;51.520;6.764;2022-10-23T01:29:54;9.07;;;3.47;;
26502;SDS011;14177;51.520;6.764;2022-10-23T01:32:57;6.80;;;3.40;;
26502;SDS011;14177;51.520;6.764;2022-10-23T01:38:46;8.02;;;3.40;;
26502;SDS011;14177;51.520;6.764;2022-10-23T01:44:25;6.47;;;3.20;;
26502;SDS011;14177;51.520;6.764;2022-10-23T01:46:59;5.20;;;3.15;;
26502;SDS011;14177;51.520;6.764;2022-10-23T01:49:33;4.97;;;2.90;;
26502;SDS011;14177;51.520;6.764;2022-10-23T01:52:05;10.35;;;3.70;;
26502;SDS011;14177;51.520;6.764;2022-10-23T01:54:38;6.60;;;3.03;;
26502;SDS011;14177;51.520;6.764;2022-10-23T01:57:10;4.60;;;2.92;;
26502;SDS011;14177;51.520;6.764;2022-10-23T01:59:43;5.72;;;3.08;;
26502;SDS011;14177;51.520;6.764;2022-10-23T02:02:17;5.53;;;2.95;;
26502;SDS011;14177;51.520;6.764;2022-10-23T02:07:43;4.73;;;3.23;;
26502;SDS011;14177;51.520;6.764;2022-10-23T02:10:11;6.55;;;3.20;;
26502;SDS011;14177;51.520;6.764;2022-10-23T02:12:51;7.15;;;3.17;;
26502;SDS011;14177;51.520;6.764;2022-10-23T02:15:33;6.53;;;3.03;;
26502;SDS011;14177;51.520;6.764;2022-10-23T02:18:07;5.20;;;2.80;;
26502;SDS011;14177;51.520;6.764;2022-10-23T02:21:22;4.88;;;3.10;;
26502;SDS011;14177;51.520;6.764;2022-10-23T02:24:08;5.05;;;3.00;;
26502;SDS011;14177;51.520;6.764;2022-10-23T02:29:24;6.93;;;2.80;;
26502;SDS011;14177;51.520;6.764;2022-10-23T02:32:01;6.78;;;3.05;;
26502;SDS011;14177;51.520;6.764;2022-10-23T02:34:28;6.40;;;3.53;;
26502;SDS011;14177;51.520;6.764;2022-10-23T02:36:55;5.10;;;2.88;;
26502;SDS011;14177;51.520;6.764;2022-10-23T02:39:23;5.05;;;2.60;;
26502;SDS011;14177;51.520;6.764;2022-10-23T02:41:55;7.07;;;2.83;;
26502;SDS011;14177;51.520;6.764;2022-10-23T02:47:38;4.90;;;2.97;;
26502;SDS011;14177;51.520;6.764;2022-10-23T03:01:39;5.00;;;3.00;;
26502;SDS011;14177;51.520;6.764;2022-10-23T03:04:14;5.38;;;2.72;;
26502;SDS011;14177;51.520;6.764;2022-10-23T03:06:44;5.70;;;2.95;;
26502;SDS011;14177;51.520;6.764;2022-10-23T03:09:15;6.75;;;2.75;;
26502;SDS011;14177;51.520;6.764;2022-10-23T03:11:43;5.07;;;2.70;;
26502;SDS011;14177;51.520;6.764;2022-10-23T03:14:10;5.28;;;2.67;;
26502;SDS011;14177;51.520;6.764;2022-10-23T03:16:38;8.68;;;2.97;;
26502;SDS011;14177;51.520;6.764;2022-10-23T03:19:07;7.22;;;3.15;;
26502;SDS011;14177;51.520;6.764;2022-10-23T03:21:34;7.43;;;3.28;;
26502;SDS011;14177;51.520;6.764;2022-10-23T03:24:05;8.48;;;3.17;;
26502;SDS011;14177;51.520;6.764;2022-10-23T03:26:38;5.70;;;2.75;;
26502;SDS011;14177;51.520;6.764;2022-10-23T03:29:05;4.55;;;2.65;;
26502;SDS011;14177;51.520;6.764;2022-10-23T03:31:38;6.82;;;3.00;;
26502;SDS011;14177;51.520;6.764;2022-10-23T03:34:05;7.65;;;2.88;;
26502;SDS011;14177;51.520;6.764;2022-10-23T03:36:38;7.13;;;3.20;;
26502;SDS011;14177;51.520;6.764;2022-10-23T03:39:06;6.20;;;2.67;;
26502;SDS011;14177;51.520;6.764;2022-10-23T03:41:33;4.35;;;2.50;;
26502;SDS011;14177;51.520;6.764;2022-10-23T03:44:00;4.65;;;2.55;;
26502;SDS011;14177;51.520;6.764;2022-10-23T03:46:27;8.32;;;2.92;;
26502;SDS011;14177;51.520;6.764;2022-10-23T03:48:54;4.78;;;2.70;;
26502;SDS011;14177;51.520;6.764;2022-10-23T03:51:23;7.40;;;2.90;;
26502;SDS011;14177;51.520;6.764;2022-10-23T03:53:50;6.65;;;3.20;;
26502;SDS011;14177;51.520;6.764;2022-10-23T03:56:17;4.45;;;2.88;;
26502;SDS011;14177;51.520;6.764;2022-10-23T03:58:44;11.02;;;2.60;;
26502;SDS011;14177;51.520;6.764;2022-10-23T04:01:12;6.68;;;2.97;;
26502;SDS011;14177;51.520;6.764;2022-10-23T04:03:39;5.63;;;3.25;;
26502;SDS011;14177;51.520;6.764;2022-10-23T04:06:06;6.15;;;2.60;;
26502;SDS011;14177;51.520;6.764;2022-10-23T04:08:33;4.72;;;2.58;;
26502;SDS011;14177;51.520;6.764;2022-10-23T04:11:06;6.20;;;2.42;;
26502;SDS011;14177;51.520;6.764;2022-10-23T04:13:41;5.15;;;2.63;;
26502;SDS011;14177;51.520;6.764;2022-10-23T04:16:08;3.58;;;2.70;;
26502;SDS011;14177;51.520;6.764;2022-10-23T04:18:35;6.30;;;2.50;;
26502;SDS011;14177;51.520;6.764;2022-10-23T04:21:02;5.47;;;2.50;;
26502;SDS011;14177;51.520;6.764;2022-10-23T04:23:31;3.95;;;2.40;;
26502;SDS011;14177;51.520;6.764;2022-10-23T04:25:58;3.40;;;2.28;;
26502;SDS011;14177;51.520;6.764;2022-10-23T04:28:25;10.63;;;2.90;;
26502;SDS011;14177;51.520;6.764;2022-10-23T04:30:53;5.13;;;2.22;;
26502;SDS011;14177;51.520;6.764;2022-10-23T04:33:20;4.50;;;2.30;;
26502;SDS011;14177;51.520;6.764;2022-10-23T04:35:49;3.30;;;2.22;;
26502;SDS011;14177;51.520;6.764;2022-10-23T04:38:16;6.35;;;2.50;;
26502;SDS011;14177;51.520;6.764;2022-10-23T04:40:43;5.63;;;2.50;;
26502;SDS011;14177;51.520;6.764;2022-10-23T04:43:10;4.35;;;2.05;;
26502;SDS011;14177;51.520;6.764;2022-10-23T04:45:38;3.70;;;2.45;;
26502;SDS011;14177;51.520;6.764;2022-10-23T04:48:07;5.25;;;2.03;;
26502;SDS011;14177;51.520;6.764;2022-10-23T04:50:59;7.00;;;2.28;;
26502;SDS011;14177;51.520;6.764;2022-10-23T04:53:49;6.97;;;2.20;;
26502;SDS011;14177;51.520;6.764;2022-10-23T04:56:33;2.72;;;1.80;;
26502;SDS011;14177;51.520;6.764;2022-10-23T04:59:04;10.10;;;2.13;;
26502;SDS011;14177;51.520;6.764;2022-10-23T05:01:37;6.88;;;2.67;;
26502;SDS011;14177;51.520;6.764;2022-10-23T05:04:06;6.03;;;2.88;;
26502;SDS011;14177;51.520;6.764;2022-10-23T05:06:45;11.73;;;3.50;;
26502;SDS011;14177;51.520;6.764;2022-10-23T05:09:30;4.50;;;2.58;;
26502;SDS011;14177;51.520;6.764;2022-10-23T05:12:05;5.70;;;2.85;;
26502;SDS011;14177;51.520;6.764;2022-10-23T05:14:32;7.22;;;2.67;;
26502;SDS011;14177;51.520;6.764;2022-10-23T05:16:59;7.25;;;2.70;;
26502;SDS011;14177;51.520;6.764;2022-10-23T05:19:35;4.97;;;2.53;;
26502;SDS011;14177;51.520;6.764;2022-10-23T05:22:09;5.70;;;2.80;;
26502;SDS011;14177;51.520;6.764;2022-10-23T05:24:50;7.53;;;2.97;;
26502;SDS011;14177;51.520;6.764;2022-10-23T05:27:22;10.38;;;3.22;;
26502;SDS011;14177;51.520;6.764;2022-10-23T05:29:52;10.27;;;2.70;;
26502;SDS011;14177;51.520;6.764;2022-10-23T05:32:23;4.95;;;2.70;;
26502;SDS011;14177;51.520;6.764;2022-10-23T05:34:55;3.28;;;2.30;;
26502;SDS011;14177;51.520;6.764;2022-10-23T05:37:27;5.03;;;2.60;;
26502;SDS011;14177;51.520;6.764;2022-10-23T05:40:05;4.50;;;2.58;;
26502;SDS011;14177;51.520;6.764;2022-10-23T05:42:35;6.72;;;2.80;;
26502;SDS011;14177;51.520;6.764;2022-10-23T05:45:06;7.40;;;3.88;;
26502;SDS011;14177;51.520;6.764;2022-10-23T05:47:43;5.05;;;3.10;;
26502;SDS011;14177;51.520;6.764;2022-10-23T05:50:27;6.40;;;3.40;;
26502;SDS011;14177;51.520;6.764;2022-10-23T05:56:05;5.18;;;2.85;;
26502;SDS011;14177;51.520;6.764;2022-10-23T05:58:52;6.70;;;2.83;;
26502;SDS011;14177;51.520;6.764;2022-10-23T06:01:28;4.90;;;2.50;;
26502;SDS011;14177;51.520;6.764;2022-10-23T06:04:03;5.80;;;2.45;;
26502;SDS011;14177;51.520;6.764;2022-10-23T06:06:49;5.05;;;2.55;;
26502;SDS011;14177;51.520;6.764;2022-10-23T06:09:16;4.13;;;2.75;;
26502;SDS011;14177;51.520;6.764;2022-10-23T06:11:45;7.30;;;2.85;;
26502;SDS011;14177;51.520;6.764;2022-10-23T06:14:17;7.38;;;2.90;;
26502;SDS011;14177;51.520;6.764;2022-10-23T06:16:46;5.30;;;2.92;;
26502;SDS011;14177;51.520;6.764;2022-10-23T06:19:13;6.57;;;3.25;;
26502;SDS011;14177;51.520;6.764;2022-10-23T06:21:41;7.00;;;2.97;;
26502;SDS011;14177;51.520;6.764;2022-10-23T06:24:11;5.82;;;2.92;;
26502;SDS011;14177;51.520;6.764;2022-10-23T06:26:46;7.22;;;3.80;;
26502;SDS011;14177;51.520;6.764;2022-10-23T06:29:33;5.40;;;3.47;;
26502;SDS011;14177;51.520;6.764;2022-10-23T06:32:00;9.38;;;3.70;;
26502;SDS011;14177;51.520;6.764;2022-10-23T06:34:27;8.52;;;4.05;;
26502;SDS011;14177;51.520;6.764;2022-10-23T06:36:54;8.18;;;4.00;;
26502;SDS011;14177;51.520;6.764;2022-10-23T06:39:43;7.97;;;3.95;;
26502;SDS011;14177;51.520;6.764;2022-10-23T06:42:30;5.43;;;3.63;;
26502;SDS011;14177;51.520;6.764;2022-10-23T06:44:57;7.40;;;4.30;;
26502;SDS011;14177;51.520;6.764;2022-10-23T06:48:04;6.07;;;3.80;;
26502;SDS011;14177;51.520;6.764;2022-10-23T06:50:54;8.80;;;4.10;;
26502;SDS011;14177;51.520;6.764;2022-10-23T06:53:32;8.57;;;4.45;;
26502;SDS011;14177;51.520;6.764;2022-10-23T06:56:09;8.15;;;4.30;;
26502;SDS011;14177;51.520;6.764;2022-10-23T06:58:41;6.53;;;4.22;;
26502;SDS011;14177;51.520;6.764;2022-10-23T07:01:13;7.80;;;4.00;;
26502;SDS011;14177;51.520;6.764;2022-10-23T07:03:50;5.68;;;3.65;;
26502;SDS011;14177;51.520;6.764;2022-10-23T07:06:24;9.32;;;5.25;;
26502;SDS011;14177;51.520;6.764;2022-10-23T07:08:52;9.75;;;6.13;;
26502;SDS011;14177;51.520;6.764;2022-10-23T07:11:53;11.40;;;5.85;;
26502;SDS011;14177;51.520;6.764;2022-10-23T07:14:27;10.48;;;5.63;;
26502;SDS011;14177;51.520;6.764;2022-10-23T07:16:59;13.32;;;6.90;;
26502;SDS011;14177;51.520;6.764;2022-10-23T07:19:27;11.57;;;6.60;;
26502;SDS011;14177;51.520;6.764;2022-10-23T07:22:03;14.85;;;6.22;;
26502;SDS011;14177;51.520;6.764;2022-10-23T07:24:42;11.55;;;6.35;;
26502;SDS011;14177;51.520;6.764;2022-10-23T07:27:23;13.05;;;5.40;;
26502;SDS011;14177;51.520;6.764;2022-10-23T07:29:56;13.23;;;5.85;;
26502;SDS011;14177;51.520;6.764;2022-10-23T07:32:27;14.75;;;5.88;;
26502;SDS011;14177;51.520;6.764;2022-10-23T07:35:15;9.90;;;5.50;;
26502;SDS011;14177;51.520;6.764;2022-10-23T07:37:52;9.32;;;6.13;;
26502;SDS011;14177;51.520;6.764;2022-10-23T07:40:20;11.38;;;5.55;;
26502;SDS011;14177;51.520;6.764;2022-10-23T07:42:49;12.75;;;5.68;;
26502;SDS011;14177;51.520;6.764;2022-10-23T07:45:17;8.45;;;4.82;;
26502;SDS011;14177;51.520;6.764;2022-10-23T07:47:48;13.02;;;5.03;;
26502;SDS011;14177;51.520;6.764;2022-10-23T07:50:19;15.50;;;5.28;;
26502;SDS011;14177;51.520;6.764;2022-10-23T07:52:46;15.32;;;5.45;;
26502;SDS011;14177;51.520;6.764;2022-10-23T07:55:15;11.27;;;5.32;;
26502;SDS011;14177;51.520;6.764;2022-10-23T07:57:52;11.48;;;5.43;;
26502;SDS011;14177;51.520;6.764;2022-10-23T08:00:51;10.93;;;5.53;;
26502;SDS011;14177;51.520;6.764;2022-10-23T08:03:32;12.40;;;5.00;;
26502;SDS011;14177;51.520;6.764;2022-10-23T08:06:00;10.85;;;5.07;;
26502;SDS011;14177;51.520;6.764;2022-10-23T08:08:27;10.45;;;5.60;;
26502;SDS011;14177;51.520;6.764;2022-10-23T08:11:00;9.02;;;5.07;;
26502;SDS011;14177;51.520;6.764;2022-10-23T08:13:32;11.35;;;5.10;;
26502;SDS011;14177;51.520;6.764;2022-10-23T08:16:02;11.30;;;5.45;;
26502;SDS011;14177;51.520;6.764;2022-10-23T08:19:03;8.38;;;4.85;;
26502;SDS011;14177;51.520;6.764;2022-10-23T08:21:34;9.32;;;5.10;;
26502;SDS011;14177;51.520;6.764;2022-10-23T08:24:02;8.00;;;4.68;;
26502;SDS011;14177;51.520;6.764;2022-10-23T08:26:29;11.98;;;5.32;;
26502;SDS011;14177;51.520;6.764;2022-10-23T08:28:57;10.93;;;4.78;;
26502;SDS011;14177;51.520;6.764;2022-10-23T08:31:26;8.00;;;4.15;;
26502;SDS011;14177;51.520;6.764;2022-10-23T08:34:11;7.28;;;4.18;;
26502;SDS011;14177;51.520;6.764;2022-10-23T08:36:40;8.88;;;3.92;;
26502;SDS011;14177;51.520;6.764;2022-10-23T08:39:07;13.20;;;3.75;;
26502;SDS011;14177;51.520;6.764;2022-10-23T08:41:42;6.30;;;3.30;;
26502;SDS011;14177;51.520;6.764;2022-10-23T08:44:31;7.47;;;3.40;;
26502;SDS011;14177;51.520;6.764;2022-10-23T08:47:30;8.57;;;3.13;;
26502;SDS011;14177;51.520;6.764;2022-10-23T08:50:57;12.25;;;2.97;;
26502;SDS011;14177;51.520;6.764;2022-10-23T08:53:59;10.40;;;3.85;;
26502;SDS011;14177;51.520;6.764;2022-10-23T08:56:41;6.00;;;3.00;;
26502;SDS011;14177;51.520;6.764;2022-10-23T09:05:30;5.47;;;3.20;;
26502;SDS011;14177;51.520;6.764;2022-10-23T09:11:31;5.95;;;2.60;;
26502;SDS011;14177;51.520;6.764;2022-10-23T09:14:24;9.40;;;2.63;;
26502;SDS011;14177;51.520;6.764;2022-10-23T09:22:36;9.63;;;2.72;;
26502;SDS011;14177;51.520;6.764;2022-10-23T09:25:07;4.18;;;2.60;;
26502;SDS011;14177;51.520;6.764;2022-10-23T09:27:36;6.68;;;2.28;;
26502;SDS011;14177;51.520;6.764;2022-10-23T09:30:03;6.55;;;2.75;;
26502;SDS011;14177;51.520;6.764;2022-10-23T09:32:35;5.25;;;2.63;;
26502;SDS011;14177;51.520;6.764;2022-10-23T09:35:04;5.03;;;2.70;;
26502;SDS011;14177;51.520;6.764;2022-10-23T09:37:33;6.25;;;2.28;;
26502;SDS011;14177;51.520;6.764;2022-10-23T09:40:14;5.82;;;2.30;;
26502;SDS011;14177;51.520;6.764;2022-10-23T09:43:16;5.78;;;2.55;;
26502;SDS011;14177;51.520;6.764;2022-10-23T09:45:55;7.45;;;2.72;;
26502;SDS011;14177;51.520;6.764;2022-10-23T09:48:26;3.40;;;2.27;;
26502;SDS011;14177;51.520;6.764;2022-10-23T09:50:54;8.98;;;2.55;;
26502;SDS011;14177;51.520;6.764;2022-10-23T09:53:31;6.00;;;2.42;;
26502;SDS011;14177;51.520;6.764;2022-10-23T09:56:27;6.72;;;2.45;;
26502;SDS011;14177;51.520;6.764;2022-10-23T09:59:00;4.65;;;1.80;;
26502;SDS011;14177;51.520;6.764;2022-10-23T10:01:56;6.28;;;1.83;;
26502;SDS011;14177;51.520;6.764;2022-10-23T10:05:22;4.05;;;1.58;;
26502;SDS011;14177;51.520;6.764;2022-10-23T10:10:59;7.47;;;1.20;;
26502;SDS011;14177;51.520;6.764;2022-10-23T10:16:10;3.08;;;1.02;;
26502;SDS011;14177;51.520;6.764;2022-10-23T10:21:52;3.03;;;1.13;;
26502;SDS011;14177;51.520;6.764;2022-10-23T10:24:54;2.03;;;1.00;;
26502;SDS011;14177;51.520;6.764;2022-10-23T10:27:44;5.55;;;1.10;;
26502;SDS011;14177;51.520;6.764;2022-10-23T10:30:27;2.97;;;1.25;;
26502;SDS011;14177;51.520;6.764;2022-10-23T10:36:50;3.47;;;0.95;;
26502;SDS011;14177;51.520;6.764;2022-10-23T10:47:42;3.92;;;1.90;;
26502;SDS011;14177;51.520;6.764;2022-10-23T10:51:17;10.65;;;1.45;;
26502;SDS011;14177;51.520;6.764;2022-10-23T10:57:04;2.00;;;1.02;;
26502;SDS011;14177;51.520;6.764;2022-10-23T10:59:50;4.70;;;1.27;;
26502;SDS011;14177;51.520;6.764;2022-10-23T11:02:28;2.55;;;1.33;;
26502;SDS011;14177;51.520;6.764;2022-10-23T11:05:13;4.30;;;1.20;;
26502;SDS011;14177;51.520;6.764;2022-10-23T11:08:10;4.00;;;1.10;;
26502;SDS011;14177;51.520;6.764;2022-10-23T11:10:54;5.60;;;1.08;;
26502;SDS011;14177;51.520;6.764;2022-10-23T11:13:41;4.70;;;1.20;;
26502;SDS011;14177;51.520;6.764;2022-10-23T11:16:49;6.93;;;1.08;;
26502;SDS011;14177;51.520;6.764;2022-10-23T11:22:49;6.80;;;2.25;;
26502;SDS011;14177;51.520;6.764;2022-10-23T11:25:59;4.97;;;1.40;;
26502;SDS011;14177;51.520;6.764;2022-10-23T11:39:14;3.58;;;1.30;;
26502;SDS011;14177;51.520;6.764;2022-10-23T11:41:56;6.28;;;1.45;;
26502;SDS011;14177;51.520;6.764;2022-10-23T11:49:51;3.97;;;1.33;;
26502;SDS011;14177;51.520;6.764;2022-10-23T11:58:50;2.65;;;1.50;;
26502;SDS011;14177;51.520;6.764;2022-10-23T12:06:50;2.30;;;0.80;;
26502;SDS011;14177;51.520;6.764;2022-10-23T12:09:29;2.78;;;1.25;;
26502;SDS011;14177;51.520;6.764;2022-10-23T12:17:19;4.88;;;1.00;;
26502;SDS011;14177;51.520;6.764;2022-10-23T12:19:52;3.38;;;1.00;;
26502;SDS011;14177;51.520;6.764;2022-10-23T12:22:37;3.60;;;1.65;;
26502;SDS011;14177;51.520;6.764;2022-10-23T12:29:09;4.25;;;0.90;;
26502;SDS011;14177;51.520;6.764;2022-10-23T12:38:20;5.28;;;0.95;;
26502;SDS011;14177;51.520;6.764;2022-10-23T12:40:55;5.75;;;1.02;;
26502;SDS011;14177;51.520;6.764;2022-10-23T12:43:39;3.15;;;0.95;;
26502;SDS011;14177;51.520;6.764;2022-10-23T12:48:51;5.65;;;1.30;;
26502;SDS011;14177;51.520;6.764;2022-10-23T12:51:24;4.88;;;0.98;;
26502;SDS011;14177;51.520;6.764;2022-10-23T12:53:58;5.43;;;1.05;;
26502;SDS011;14177;51.520;6.764;2022-10-23T12:56:26;2.50;;;0.90;;
26502;SDS011;14177;51.520;6.764;2022-10-23T12:59:00;6.03;;;1.48;;
26502;SDS011;14177;51.520;6.764;2022-10-23T13:01:37;3.67;;;1.27;;
26502;SDS011;14177;51.520;6.764;2022-10-23T13:04:12;3.78;;;1.10;;
26502;SDS011;14177;51.520;6.764;2022-10-23T13:06:51;1.30;;;1.00;;
26502;SDS011;14177;51.520;6.764;2022-10-23T13:12:14;2.80;;;1.15;;
26502;SDS011;14177;51.520;6.764;2022-10-23T13:18:15;2.50;;;1.00;;
26502;SDS011;14177;51.520;6.764;2022-10-23T13:22:58;5.15;;;1.38;;
26502;SDS011;14177;51.520;6.764;2022-10-23T13:25:53;6.20;;;1.30;;
26502;SDS011;14177;51.520;6.764;2022-10-23T13:28:50;9.38;;;1.48;;
26502;SDS011;14177;51.520;6.764;2022-10-23T13:33:50;5.18;;;1.20;;
26502;SDS011;14177;51.520;6.764;2022-10-23T13:36:34;3.70;;;1.33;;
26502;SDS011;14177;51.520;6.764;2022-10-23T13:41:42;4.50;;;1.20;;
26502;SDS011;14177;51.520;6.764;2022-10-23T13:44:12;3.47;;;1.33;;
26502;SDS011;14177;51.520;6.764;2022-10-23T13:46:42;7.32;;;1.15;;
26502;SDS011;14177;51.520;6.764;2022-10-23T13:49:09;7.90;;;1.60;;
26502;SDS011;14177;51.520;6.764;2022-10-23T13:51:54;3.80;;;1.20;;
26502;SDS011;14177;51.520;6.764;2022-10-23T13:54:24;3.47;;;1.40;;
26502;SDS011;14177;51.520;6.764;2022-10-23T13:56:58;4.95;;;1.10;;
26502;SDS011;14177;51.520;6.764;2022-10-23T13:59:25;4.57;;;1.17;;
26502;SDS011;14177;51.520;6.764;2022-10-23T14:01:52;8.40;;;1.48;;
26502;SDS011;14177;51.520;6.764;2022-10-23T14:04:19;7.25;;;1.40;;
26502;SDS011;14177;51.520;6.764;2022-10-23T14:06:47;4.60;;;1.48;;
26502;SDS011;14177;51.520;6.764;2022-10-23T14:09:15;4.68;;;1.40;;
26502;SDS011;14177;51.520;6.764;2022-10-23T14:11:43;5.45;;;1.60;;
26502;SDS011;14177;51.520;6.764;2022-10-23T14:14:10;3.10;;;1.27;;
26502;SDS011;14177;51.520;6.764;2022-10-23T14:16:37;3.65;;;1.70;;
26502;SDS011;14177;51.520;6.764;2022-10-23T14:19:05;3.90;;;1.48;;
26502;SDS011;14177;51.520;6.764;2022-10-23T14:21:33;6.57;;;1.52;;
26502;SDS011;14177;51.520;6.764;2022-10-23T14:24:00;5.65;;;1.70;;
26502;SDS011;14177;51.520;6.764;2022-10-23T14:26:26;7.38;;;1.90;;
26502;SDS011;14177;51.520;6.764;2022-10-23T14:28:55;5.60;;;1.70;;
26502;SDS011;14177;51.520;6.764;2022-10-23T14:31:30;3.08;;;1.80;;
26502;SDS011;14177;51.520;6.764;2022-10-23T14:34:00;7.55;;;1.52;;
26502;SDS011;14177;51.520;6.764;2022-10-23T14:36:27;3.05;;;1.40;;
26502;SDS011;14177;51.520;6.764;2022-10-23T14:39:14;4.35;;;1.90;;
26502;SDS011;14177;51.520;6.764;2022-10-23T14:41:41;4.22;;;1.75;;
26502;SDS011;14177;51.520;6.764;2022-10-23T14:44:08;3.78;;;1.67;;
26502;SDS011;14177;51.520;6.764;2022-10-23T14:46:35;5.93;;;1.42;;
26502;SDS011;14177;51.520;6.764;2022-10-23T14:49:04;7.50;;;1.50;;
26502;SDS011;14177;51.520;6.764;2022-10-23T14:51:31;9.13;;;1.40;;
26502;SDS011;14177;51.520;6.764;2022-10-23T14:53:59;6.55;;;1.50;;
26502;SDS011;14177;51.520;6.764;2022-10-23T14:56:29;5.95;;;1.70;;
26502;SDS011;14177;51.520;6.764;2022-10-23T14:58:59;2.90;;;1.38;;
26502;SDS011;14177;51.520;6.764;2022-10-23T15:01:31;8.13;;;1.30;;
26502;SDS011;14177;51.520;6.764;2022-10-23T15:04:02;13.52;;;2.05;;
26502;SDS011;14177;51.520;6.764;2022-10-23T15:06:29;2.92;;;1.60;;
26502;SDS011;14177;51.520;6.764;2022-10-23T15:08:58;5.38;;;1.63;;
26502;SDS011;14177;51.520;6.764;2022-10-23T15:11:25;3.45;;;1.65;;
26502;SDS011;14177;51.520;6.764;2022-10-23T15:13:53;5.22;;;1.88;;
26502;SDS011;14177;51.520;6.764;2022-10-23T15:16:21;5.10;;;1.73;;
26502;SDS011;14177;51.520;6.764;2022-10-23T15:18:49;7.70;;;1.60;;
26502;SDS011;14177;51.520;6.764;2022-10-23T15:21:21;7.03;;;1.85;;
26502;SDS011;14177;51.520;6.764;2022-10-23T15:23:52;8.63;;;2.50;;
26502;SDS011;14177;51.520;6.764;2022-10-23T15:26:24;5.97;;;1.45;;
26502;SDS011;14177;51.520;6.764;2022-10-23T15:28:52;4.55;;;1.50;;
26502;SDS011;14177;51.520;6.764;2022-10-23T15:34:09;4.15;;;1.50;;
26502;SDS011;14177;51.520;6.764;2022-10-23T15:36:50;13.18;;;2.67;;
26502;SDS011;14177;51.520;6.764;2022-10-23T15:39:26;7.90;;;2.50;;
26502;SDS011;14177;51.520;6.764;2022-10-23T15:41:59;3.80;;;1.88;;
26502;SDS011;14177;51.520;6.764;2022-10-23T15:44:28;9.05;;;2.22;;
26502;SDS011;14177;51.520;6.764;2022-10-23T15:47:03;6.28;;;2.42;;
26502;SDS011;14177;51.520;6.764;2022-10-23T15:49:35;6.30;;;2.40;;
26502;SDS011;14177;51.520;6.764;2022-10-23T15:52:10;5.60;;;2.17;;
26502;SDS011;14177;51.520;6.764;2022-10-23T15:54:41;6.35;;;2.45;;
26502;SDS011;14177;51.520;6.764;2022-10-23T15:57:08;4.35;;;2.28;;
26502;SDS011;14177;51.520;6.764;2022-10-23T15:59:36;9.77;;;2.05;;
26502;SDS011;14177;51.520;6.764;2022-10-23T16:02:05;9.52;;;2.10;;
26502;SDS011;14177;51.520;6.764;2022-10-23T16:04:42;7.85;;;2.10;;
26502;SDS011;14177;51.520;6.764;2022-10-23T16:07:27;6.32;;;2.08;;
26502;SDS011;14177;51.520;6.764;2022-10-23T16:09:55;4.97;;;2.47;;
26502;SDS011;14177;51.520;6.764;2022-10-23T16:12:24;19.52;;;3.05;;
26502;SDS011;14177;51.520;6.764;2022-10-23T16:15:33;6.35;;;2.30;;
26502;SDS011;14177;51.520;6.764;2022-10-23T16:18:39;5.10;;;2.13;;
26502;SDS011;14177;51.520;6.764;2022-10-23T16:21:27;6.95;;;2.25;;
26502;SDS011;14177;51.520;6.764;2022-10-23T16:24:04;10.95;;;2.90;;
26502;SDS011;14177;51.520;6.764;2022-10-23T16:26:36;5.28;;;2.22;;
26502;SDS011;14177;51.520;6.764;2022-10-23T16:29:06;7.57;;;2.28;;
26502;SDS011;14177;51.520;6.764;2022-10-23T16:31:38;6.68;;;3.30;;
26502;SDS011;14177;51.520;6.764;2022-10-23T16:34:08;6.10;;;3.90;;
26502;SDS011;14177;51.520;6.764;2022-10-23T16:36:36;7.97;;;2.63;;
26502;SDS011;14177;51.520;6.764;2022-10-23T16:39:28;9.10;;;2.55;;
26502;SDS011;14177;51.520;6.764;2022-10-23T16:42:15;6.65;;;2.90;;
26502;SDS011;14177;51.520;6.764;2022-10-23T16:44:56;11.15;;;3.40;;
26502;SDS011;14177;51.520;6.764;2022-10-23T16:47:23;5.50;;;2.10;;
26502;SDS011;14177;51.520;6.764;2022-10-23T16:49:54;9.80;;;4.22;;
26502;SDS011;14177;51.520;6.764;2022-10-23T16:52:21;20.00;;;7.45;;
26502;SDS011;14177;51.520;6.764;2022-10-23T16:54:50;9.10;;;5.32;;
26502;SDS011;14177;51.520;6.764;2022-10-23T16:57:17;9.32;;;3.10;;
26502;SDS011;14177;51.520;6.764;2022-10-23T16:59:44;5.72;;;2.45;;
26502;SDS011;14177;51.520;6.764;2022-10-23T17:02:12;9.85;;;2.40;;
26502;SDS011;14177;51.520;6.764;2022-10-23T17:04:39;6.47;;;2.78;;
26502;SDS011;14177;51.520;6.764;2022-10-23T17:07:09;10.63;;;2.45;;
26502;SDS011;14177;51.520;6.764;2022-10-23T17:09:39;5.78;;;2.35;;
26502;SDS011;14177;51.520;6.764;2022-10-23T17:12:10;8.35;;;3.60;;
26502;SDS011;14177;51.520;6.764;2022-10-23T17:14:38;10.98;;;3.05;;
26502;SDS011;14177;51.520;6.764;2022-10-23T17:17:05;8.77;;;2.80;;
26502;SDS011;14177;51.520;6.764;2022-10-23T17:19:37;4.50;;;2.47;;
26502;SDS011;14177;51.520;6.764;2022-10-23T17:22:20;3.78;;;2.38;;
26502;SDS011;14177;51.520;6.764;2022-10-23T17:25:44;9.00;;;2.70;;
26502;SDS011;14177;51.520;6.764;2022-10-23T17:28:12;8.82;;;3.00;;
26502;SDS011;14177;51.520;6.764;2022-10-23T17:30:41;6.72;;;2.50;;
26502;SDS011;14177;51.520;6.764;2022-10-23T17:33:08;6.38;;;2.15;;
26502;SDS011;14177;51.520;6.764;2022-10-23T17:35:35;9.15;;;2.30;;
26502;SDS011;14177;51.520;6.764;2022-10-23T17:38:05;11.10;;;2.75;;
26502;SDS011;14177;51.520;6.764;2022-10-23T17:40:33;9.98;;;2.60;;
26502;SDS011;14177;51.520;6.764;2022-10-23T17:43:00;7.80;;;2.47;;
26502;SDS011;14177;51.520;6.764;2022-10-23T17:45:28;7.22;;;2.47;;
26502;SDS011;14177;51.520;6.764;2022-10-23T17:48:03;8.23;;;2.78;;
26502;SDS011;14177;51.520;6.764;2022-10-23T17:50:31;8.25;;;2.53;;
26502;SDS011;14177;51.520;6.764;2022-10-23T17:52:58;5.75;;;2.88;;